sensor_id;sensor_type;location;lat;lon;timestamp;P1;durP1;ratioP1;P2;durP2;ratioP2
60665;SDS011;59128;44.642;21.188;2023-05-06T00:01:37;10.18;;;9.18;;
60665;SDS011;59128;44.642;21.188;2023-05-06T00:04:04;10.60;;;9.63;;
60665;SDS011;59128;44.642;21.188;2023-05-06T00:06:30;9.98;;;9.07;;
60665;SDS011;59128;44.642;21.188;2023-05-06T00:08:57;10.25;;;9.27;;
60665;SDS011;59128;44.642;21.188;2023-05-06T00:11:23;11.43;;;10.20;;
60665;SDS011;59128;44.642;21.188;2023-05-06T00:13:50;11.33;;;10.33;;
60665;SDS011;59128;44.642;21.188;2023-05-06T00:16:16;10.70;;;9.80;;
60665;SDS011;59128;44.642;21.188;2023-05-06T00:18:42;11.05;;;9.93;;
60665;SDS011;59128;44.642;21.188;2023-05-06T00:21:08;11.25;;;10.15;;
60665;SDS011;59128;44.642;21.188;2023-05-06T00:23:35;9.93;;;9.02;;
60665;SDS011;59128;44.642;21.188;2023-05-06T00:26:01;10.30;;;9.27;;
60665;SDS011;59128;44.642;21.188;2023-05-06T00:28:27;10.05;;;9.05;;
60665;SDS011;59128;44.642;21.188;2023-05-06T00:30:53;9.13;;;8.33;;
60665;SDS011;59128;44.642;21.188;2023-05-06T00:33:19;8.88;;;8.00;;
60665;SDS011;59128;44.642;21.188;2023-05-06T00:35:45;9.30;;;8.40;;
60665;SDS011;59128;44.642;21.188;2023-05-06T00:38:12;8.27;;;7.57;;
60665;SDS011;59128;44.642;21.188;2023-05-06T00:40:39;9.27;;;8.32;;
60665;SDS011;59128;44.642;21.188;2023-05-06T00:43:05;9.20;;;8.30;;
60665;SDS011;59128;44.642;21.188;2023-05-06T00:45:31;8.80;;;8.00;;
60665;SDS011;59128;44.642;21.188;2023-05-06T00:47:57;9.07;;;7.97;;
60665;SDS011;59128;44.642;21.188;2023-05-06T00:50:24;9.70;;;8.70;;
60665;SDS011;59128;44.642;21.188;2023-05-06T00:52:52;8.70;;;7.93;;
60665;SDS011;59128;44.642;21.188;2023-05-06T00:55:18;8.63;;;7.82;;
60665;SDS011;59128;44.642;21.188;2023-05-06T00:57:45;8.53;;;7.70;;
60665;SDS011;59128;44.642;21.188;2023-05-06T01:00:14;9.20;;;8.30;;
60665;SDS011;59128;44.642;21.188;2023-05-06T01:02:40;8.68;;;7.88;;
60665;SDS011;59128;44.642;21.188;2023-05-06T01:05:07;10.10;;;9.15;;
60665;SDS011;59128;44.642;21.188;2023-05-06T01:10:16;10.27;;;9.27;;
60665;SDS011;59128;44.642;21.188;2023-05-06T01:12:49;10.33;;;9.33;;
60665;SDS011;59128;44.642;21.188;2023-05-06T01:15:41;11.50;;;10.40;;
60665;SDS011;59128;44.642;21.188;2023-05-06T01:18:09;11.65;;;10.45;;
60665;SDS011;59128;44.642;21.188;2023-05-06T01:20:36;11.57;;;10.48;;
60665;SDS011;59128;44.642;21.188;2023-05-06T01:23:06;11.43;;;10.32;;
60665;SDS011;59128;44.642;21.188;2023-05-06T01:25:32;12.55;;;11.32;;
60665;SDS011;59128;44.642;21.188;2023-05-06T01:27:58;12.50;;;11.20;;
60665;SDS011;59128;44.642;21.188;2023-05-06T01:30:24;12.88;;;11.50;;
60665;SDS011;59128;44.642;21.188;2023-05-06T01:33:08;12.05;;;10.90;;
60665;SDS011;59128;44.642;21.188;2023-05-06T01:35:39;12.02;;;10.85;;
60665;SDS011;59128;44.642;21.188;2023-05-06T01:40:55;11.38;;;10.27;;
60665;SDS011;59128;44.642;21.188;2023-05-06T01:43:23;11.60;;;10.55;;
60665;SDS011;59128;44.642;21.188;2023-05-06T01:45:51;11.75;;;10.65;;
60665;SDS011;59128;44.642;21.188;2023-05-06T01:48:20;11.88;;;10.77;;
60665;SDS011;59128;44.642;21.188;2023-05-06T01:50:47;11.88;;;10.77;;
60665;SDS011;59128;44.642;21.188;2023-05-06T01:53:13;12.43;;;11.15;;
60665;SDS011;59128;44.642;21.188;2023-05-06T01:55:39;12.67;;;11.47;;
60665;SDS011;59128;44.642;21.188;2023-05-06T01:58:05;12.93;;;11.70;;
60665;SDS011;59128;44.642;21.188;2023-05-06T02:00:31;13.57;;;12.23;;
60665;SDS011;59128;44.642;21.188;2023-05-06T02:02:57;12.93;;;11.53;;
60665;SDS011;59128;44.642;21.188;2023-05-06T02:05:24;13.98;;;12.68;;
60665;SDS011;59128;44.642;21.188;2023-05-06T02:07:50;13.60;;;12.13;;
60665;SDS011;59128;44.642;21.188;2023-05-06T02:10:16;13.25;;;11.95;;
60665;SDS011;59128;44.642;21.188;2023-05-06T02:12:43;13.25;;;12.00;;
60665;SDS011;59128;44.642;21.188;2023-05-06T02:15:10;12.90;;;11.70;;
60665;SDS011;59128;44.642;21.188;2023-05-06T02:17:36;13.30;;;11.90;;
60665;SDS011;59128;44.642;21.188;2023-05-06T02:20:02;13.50;;;11.40;;
60665;SDS011;59128;44.642;21.188;2023-05-06T02:22:28;12.75;;;11.48;;
60665;SDS011;59128;44.642;21.188;2023-05-06T02:24:54;11.70;;;10.40;;
60665;SDS011;59128;44.642;21.188;2023-05-06T02:27:20;10.90;;;9.80;;
60665;SDS011;59128;44.642;21.188;2023-05-06T02:29:46;10.98;;;9.95;;
60665;SDS011;59128;44.642;21.188;2023-05-06T02:32:13;11.38;;;10.27;;
60665;SDS011;59128;44.642;21.188;2023-05-06T02:34:39;10.90;;;9.90;;
60665;SDS011;59128;44.642;21.188;2023-05-06T02:37:05;11.67;;;10.47;;
60665;SDS011;59128;44.642;21.188;2023-05-06T02:39:31;14.48;;;12.98;;
60665;SDS011;59128;44.642;21.188;2023-05-06T02:41:57;17.67;;;15.80;;
60665;SDS011;59128;44.642;21.188;2023-05-06T02:44:23;17.83;;;15.80;;
60665;SDS011;59128;44.642;21.188;2023-05-06T02:46:49;18.02;;;16.13;;
60665;SDS011;59128;44.642;21.188;2023-05-06T02:49:15;19.80;;;17.70;;
60665;SDS011;59128;44.642;21.188;2023-05-06T02:51:41;20.05;;;17.30;;
60665;SDS011;59128;44.642;21.188;2023-05-06T02:54:07;18.95;;;16.95;;
60665;SDS011;59128;44.642;21.188;2023-05-06T02:56:33;16.00;;;14.30;;
60665;SDS011;59128;44.642;21.188;2023-05-06T02:58:59;15.02;;;12.98;;
60665;SDS011;59128;44.642;21.188;2023-05-06T03:01:25;14.02;;;12.40;;
60665;SDS011;59128;44.642;21.188;2023-05-06T03:03:51;13.70;;;12.30;;
60665;SDS011;59128;44.642;21.188;2023-05-06T03:06:17;12.70;;;11.40;;
60665;SDS011;59128;44.642;21.188;2023-05-06T03:08:43;13.60;;;11.35;;
60665;SDS011;59128;44.642;21.188;2023-05-06T03:11:09;13.07;;;11.77;;
60665;SDS011;59128;44.642;21.188;2023-05-06T03:13:35;11.80;;;10.70;;
60665;SDS011;59128;44.642;21.188;2023-05-06T03:16:01;11.98;;;10.80;;
60665;SDS011;59128;44.642;21.188;2023-05-06T03:18:28;13.25;;;11.18;;
60665;SDS011;59128;44.642;21.188;2023-05-06T03:20:54;10.88;;;9.77;;
60665;SDS011;59128;44.642;21.188;2023-05-06T03:23:20;11.98;;;10.10;;
60665;SDS011;59128;44.642;21.188;2023-05-06T03:25:46;9.00;;;7.57;;
60665;SDS011;59128;44.642;21.188;2023-05-06T03:28:12;7.43;;;6.47;;
60665;SDS011;59128;44.642;21.188;2023-05-06T03:30:38;6.93;;;6.22;;
60665;SDS011;59128;44.642;21.188;2023-05-06T03:33:04;7.55;;;6.65;;
60665;SDS011;59128;44.642;21.188;2023-05-06T03:35:30;7.00;;;6.35;;
60665;SDS011;59128;44.642;21.188;2023-05-06T03:37:56;7.93;;;6.63;;
60665;SDS011;59128;44.642;21.188;2023-05-06T03:40:22;7.18;;;6.47;;
60665;SDS011;59128;44.642;21.188;2023-05-06T03:42:48;7.43;;;6.68;;
60665;SDS011;59128;44.642;21.188;2023-05-06T03:45:14;6.97;;;6.28;;
60665;SDS011;59128;44.642;21.188;2023-05-06T03:47:40;7.68;;;6.85;;
60665;SDS011;59128;44.642;21.188;2023-05-06T03:50:06;8.13;;;7.25;;
60665;SDS011;59128;44.642;21.188;2023-05-06T03:52:32;8.50;;;7.70;;
60665;SDS011;59128;44.642;21.188;2023-05-06T03:54:58;8.00;;;7.20;;
60665;SDS011;59128;44.642;21.188;2023-05-06T03:57:24;7.57;;;6.88;;
60665;SDS011;59128;44.642;21.188;2023-05-06T03:59:51;7.70;;;6.90;;
60665;SDS011;59128;44.642;21.188;2023-05-06T04:02:17;7.85;;;7.05;;
60665;SDS011;59128;44.642;21.188;2023-05-06T04:04:43;9.03;;;8.10;;
60665;SDS011;59128;44.642;21.188;2023-05-06T04:07:09;8.43;;;7.63;;
60665;SDS011;59128;44.642;21.188;2023-05-06T04:09:35;8.73;;;7.20;;
60665;SDS011;59128;44.642;21.188;2023-05-06T04:12:01;9.10;;;7.70;;
60665;SDS011;59128;44.642;21.188;2023-05-06T04:14:27;8.43;;;7.38;;
60665;SDS011;59128;44.642;21.188;2023-05-06T04:16:53;8.20;;;7.22;;
60665;SDS011;59128;44.642;21.188;2023-05-06T04:19:20;7.90;;;7.18;;
60665;SDS011;59128;44.642;21.188;2023-05-06T04:21:46;8.30;;;7.40;;
60665;SDS011;59128;44.642;21.188;2023-05-06T04:24:12;11.35;;;7.68;;
60665;SDS011;59128;44.642;21.188;2023-05-06T04:26:40;10.63;;;7.32;;
60665;SDS011;59128;44.642;21.188;2023-05-06T04:29:06;7.63;;;6.93;;
60665;SDS011;59128;44.642;21.188;2023-05-06T04:31:32;7.95;;;7.15;;
60665;SDS011;59128;44.642;21.188;2023-05-06T04:33:59;7.88;;;6.97;;
60665;SDS011;59128;44.642;21.188;2023-05-06T04:36:25;7.47;;;6.78;;
60665;SDS011;59128;44.642;21.188;2023-05-06T04:38:52;7.65;;;6.75;;
60665;SDS011;59128;44.642;21.188;2023-05-06T04:41:18;8.48;;;7.00;;
60665;SDS011;59128;44.642;21.188;2023-05-06T04:43:47;7.25;;;6.63;;
60665;SDS011;59128;44.642;21.188;2023-05-06T04:46:13;8.20;;;7.28;;
60665;SDS011;59128;44.642;21.188;2023-05-06T04:48:40;7.75;;;6.95;;
60665;SDS011;59128;44.642;21.188;2023-05-06T04:51:06;7.35;;;6.45;;
60665;SDS011;59128;44.642;21.188;2023-05-06T04:53:33;7.05;;;6.32;;
60665;SDS011;59128;44.642;21.188;2023-05-06T04:55:59;7.17;;;6.43;;
60665;SDS011;59128;44.642;21.188;2023-05-06T04:58:25;7.97;;;6.43;;
60665;SDS011;59128;44.642;21.188;2023-05-06T05:00:51;6.47;;;5.80;;
60665;SDS011;59128;44.642;21.188;2023-05-06T05:03:17;6.97;;;5.60;;
60665;SDS011;59128;44.642;21.188;2023-05-06T05:05:43;10.02;;;8.98;;
60665;SDS011;59128;44.642;21.188;2023-05-06T05:08:09;8.30;;;6.27;;
60665;SDS011;59128;44.642;21.188;2023-05-06T05:10:39;8.43;;;7.60;;
60665;SDS011;59128;44.642;21.188;2023-05-06T05:13:06;8.77;;;7.80;;
60665;SDS011;59128;44.642;21.188;2023-05-06T05:15:32;11.13;;;9.15;;
60665;SDS011;59128;44.642;21.188;2023-05-06T05:17:58;8.57;;;7.70;;
60665;SDS011;59128;44.642;21.188;2023-05-06T05:20:24;8.67;;;7.73;;
60665;SDS011;59128;44.642;21.188;2023-05-06T05:22:50;8.88;;;6.95;;
60665;SDS011;59128;44.642;21.188;2023-05-06T05:25:16;8.50;;;6.50;;
60665;SDS011;59128;44.642;21.188;2023-05-06T05:27:42;6.72;;;6.13;;
60665;SDS011;59128;44.642;21.188;2023-05-06T05:30:08;5.72;;;5.15;;
60665;SDS011;59128;44.642;21.188;2023-05-06T05:32:34;5.00;;;4.50;;
60665;SDS011;59128;44.642;21.188;2023-05-06T05:35:00;4.60;;;4.20;;
60665;SDS011;59128;44.642;21.188;2023-05-06T05:37:26;5.43;;;4.55;;
60665;SDS011;59128;44.642;21.188;2023-05-06T05:39:53;5.05;;;4.32;;
60665;SDS011;59128;44.642;21.188;2023-05-06T05:42:19;5.32;;;4.32;;
60665;SDS011;59128;44.642;21.188;2023-05-06T05:44:45;4.82;;;4.43;;
60665;SDS011;59128;44.642;21.188;2023-05-06T05:47:11;5.00;;;4.40;;
60665;SDS011;59128;44.642;21.188;2023-05-06T05:49:37;4.68;;;4.28;;
60665;SDS011;59128;44.642;21.188;2023-05-06T05:52:04;4.88;;;4.38;;
60665;SDS011;59128;44.642;21.188;2023-05-06T05:54:31;5.72;;;4.80;;
60665;SDS011;59128;44.642;21.188;2023-05-06T05:56:57;5.38;;;4.88;;
60665;SDS011;59128;44.642;21.188;2023-05-06T05:59:23;5.22;;;4.72;;
60665;SDS011;59128;44.642;21.188;2023-05-06T06:01:49;5.60;;;4.60;;
60665;SDS011;59128;44.642;21.188;2023-05-06T06:04:15;5.45;;;4.95;;
60665;SDS011;59128;44.642;21.188;2023-05-06T06:06:41;5.00;;;4.50;;
60665;SDS011;59128;44.642;21.188;2023-05-06T06:09:07;5.70;;;5.20;;
60665;SDS011;59128;44.642;21.188;2023-05-06T06:11:34;6.20;;;4.93;;
60665;SDS011;59128;44.642;21.188;2023-05-06T06:14:00;6.75;;;5.10;;
60665;SDS011;59128;44.642;21.188;2023-05-06T06:16:26;5.50;;;4.90;;
60665;SDS011;59128;44.642;21.188;2023-05-06T06:18:52;5.07;;;4.68;;
60665;SDS011;59128;44.642;21.188;2023-05-06T06:21:19;4.60;;;4.20;;
60665;SDS011;59128;44.642;21.188;2023-05-06T06:23:45;4.82;;;4.32;;
60665;SDS011;59128;44.642;21.188;2023-05-06T06:26:11;5.18;;;4.28;;
60665;SDS011;59128;44.642;21.188;2023-05-06T06:28:38;4.65;;;4.25;;
60665;SDS011;59128;44.642;21.188;2023-05-06T06:31:04;5.70;;;4.80;;
60665;SDS011;59128;44.642;21.188;2023-05-06T06:33:30;5.35;;;4.45;;
60665;SDS011;59128;44.642;21.188;2023-05-06T06:35:56;6.50;;;5.28;;
60665;SDS011;59128;44.642;21.188;2023-05-06T06:38:22;6.05;;;4.15;;
60665;SDS011;59128;44.642;21.188;2023-05-06T06:40:48;5.07;;;4.32;;
60665;SDS011;59128;44.642;21.188;2023-05-06T06:43:14;5.43;;;4.63;;
60665;SDS011;59128;44.642;21.188;2023-05-06T06:45:40;6.00;;;4.43;;
60665;SDS011;59128;44.642;21.188;2023-05-06T06:48:06;5.97;;;4.82;;
60665;SDS011;59128;44.642;21.188;2023-05-06T06:50:32;6.82;;;4.75;;
60665;SDS011;59128;44.642;21.188;2023-05-06T06:52:58;5.53;;;4.28;;
60665;SDS011;59128;44.642;21.188;2023-05-06T06:55:25;4.70;;;4.30;;
60665;SDS011;59128;44.642;21.188;2023-05-06T06:57:51;5.07;;;4.53;;
60665;SDS011;59128;44.642;21.188;2023-05-06T07:00:17;4.75;;;4.25;;
60665;SDS011;59128;44.642;21.188;2023-05-06T07:02:43;4.88;;;4.38;;
60665;SDS011;59128;44.642;21.188;2023-05-06T07:05:11;4.97;;;4.57;;
60665;SDS011;59128;44.642;21.188;2023-05-06T07:07:38;4.63;;;4.22;;
60665;SDS011;59128;44.642;21.188;2023-05-06T07:10:04;4.97;;;4.47;;
60665;SDS011;59128;44.642;21.188;2023-05-06T07:12:30;4.60;;;4.20;;
60665;SDS011;59128;44.642;21.188;2023-05-06T07:14:56;5.07;;;4.57;;
60665;SDS011;59128;44.642;21.188;2023-05-06T07:17:22;4.73;;;4.33;;
60665;SDS011;59128;44.642;21.188;2023-05-06T07:19:48;5.68;;;4.85;;
60665;SDS011;59128;44.642;21.188;2023-05-06T07:22:14;4.85;;;4.00;;
60665;SDS011;59128;44.642;21.188;2023-05-06T07:24:40;2.92;;;2.63;;
60665;SDS011;59128;44.642;21.188;2023-05-06T07:27:06;3.10;;;2.90;;
60665;SDS011;59128;44.642;21.188;2023-05-06T07:29:32;3.28;;;2.97;;
60665;SDS011;59128;44.642;21.188;2023-05-06T07:32:00;3.58;;;3.38;;
60665;SDS011;59128;44.642;21.188;2023-05-06T07:34:27;3.20;;;2.90;;
60665;SDS011;59128;44.642;21.188;2023-05-06T07:36:53;3.70;;;3.40;;
60665;SDS011;59128;44.642;21.188;2023-05-06T07:39:19;6.05;;;4.47;;
60665;SDS011;59128;44.642;21.188;2023-05-06T07:41:45;5.78;;;4.22;;
60665;SDS011;59128;44.642;21.188;2023-05-06T07:44:11;3.42;;;2.70;;
60665;SDS011;59128;44.642;21.188;2023-05-06T07:46:37;5.03;;;3.17;;
60665;SDS011;59128;44.642;21.188;2023-05-06T07:49:03;2.78;;;2.03;;
60665;SDS011;59128;44.642;21.188;2023-05-06T07:51:29;3.70;;;2.63;;
60665;SDS011;59128;44.642;21.188;2023-05-06T07:53:55;3.15;;;2.90;;
60665;SDS011;59128;44.642;21.188;2023-05-06T07:56:21;3.47;;;2.50;;
60665;SDS011;59128;44.642;21.188;2023-05-06T07:58:47;3.63;;;3.33;;
60665;SDS011;59128;44.642;21.188;2023-05-06T08:01:14;2.53;;;2.33;;
60665;SDS011;59128;44.642;21.188;2023-05-06T08:03:40;2.10;;;2.00;;
60665;SDS011;59128;44.642;21.188;2023-05-06T08:06:06;2.10;;;2.00;;
60665;SDS011;59128;44.642;21.188;2023-05-06T08:08:32;2.97;;;2.00;;
60665;SDS011;59128;44.642;21.188;2023-05-06T08:10:58;2.33;;;2.13;;
60665;SDS011;59128;44.642;21.188;2023-05-06T08:13:25;2.40;;;2.17;;
60665;SDS011;59128;44.642;21.188;2023-05-06T08:15:52;2.55;;;2.30;;
60665;SDS011;59128;44.642;21.188;2023-05-06T08:18:18;3.13;;;1.92;;
60665;SDS011;59128;44.642;21.188;2023-05-06T08:20:44;2.13;;;1.80;;
60665;SDS011;59128;44.642;21.188;2023-05-06T08:23:10;2.80;;;1.67;;
60665;SDS011;59128;44.642;21.188;2023-05-06T08:25:36;2.50;;;2.30;;
60665;SDS011;59128;44.642;21.188;2023-05-06T08:28:02;3.95;;;2.00;;
60665;SDS011;59128;44.642;21.188;2023-05-06T08:30:28;2.75;;;1.75;;
60665;SDS011;59128;44.642;21.188;2023-05-06T08:32:55;1.67;;;1.58;;
60665;SDS011;59128;44.642;21.188;2023-05-06T08:35:21;2.15;;;1.80;;
60665;SDS011;59128;44.642;21.188;2023-05-06T08:37:47;2.97;;;1.83;;
60665;SDS011;59128;44.642;21.188;2023-05-06T08:40:20;1.55;;;1.45;;
60665;SDS011;59128;44.642;21.188;2023-05-06T08:42:46;2.10;;;1.80;;
60665;SDS011;59128;44.642;21.188;2023-05-06T08:45:13;2.00;;;1.67;;
60665;SDS011;59128;44.642;21.188;2023-05-06T08:47:39;1.88;;;1.77;;
60665;SDS011;59128;44.642;21.188;2023-05-06T08:50:07;1.92;;;1.77;;
60665;SDS011;59128;44.642;21.188;2023-05-06T08:52:33;2.45;;;2.25;;
60665;SDS011;59128;44.642;21.188;2023-05-06T08:55:00;2.03;;;1.92;;
60665;SDS011;59128;44.642;21.188;2023-05-06T08:57:29;1.98;;;1.88;;
60665;SDS011;59128;44.642;21.188;2023-05-06T08:59:56;2.40;;;2.08;;
60665;SDS011;59128;44.642;21.188;2023-05-06T09:02:23;2.00;;;1.90;;
60665;SDS011;59128;44.642;21.188;2023-05-06T09:04:50;2.80;;;1.80;;
60665;SDS011;59128;44.642;21.188;2023-05-06T09:07:17;2.40;;;2.20;;
60665;SDS011;59128;44.642;21.188;2023-05-06T09:09:43;3.05;;;2.00;;
60665;SDS011;59128;44.642;21.188;2023-05-06T09:12:10;2.40;;;2.20;;
60665;SDS011;59128;44.642;21.188;2023-05-06T09:14:37;2.92;;;2.72;;
60665;SDS011;59128;44.642;21.188;2023-05-06T09:17:03;3.05;;;2.40;;
60665;SDS011;59128;44.642;21.188;2023-05-06T09:19:30;2.55;;;2.35;;
60665;SDS011;59128;44.642;21.188;2023-05-06T09:21:56;3.90;;;2.30;;
60665;SDS011;59128;44.642;21.188;2023-05-06T09:24:22;2.20;;;2.00;;
60665;SDS011;59128;44.642;21.188;2023-05-06T09:26:49;3.10;;;2.33;;
60665;SDS011;59128;44.642;21.188;2023-05-06T09:29:19;2.63;;;2.28;;
60665;SDS011;59128;44.642;21.188;2023-05-06T09:31:45;3.10;;;2.83;;
60665;SDS011;59128;44.642;21.188;2023-05-06T09:34:13;2.65;;;2.45;;
60665;SDS011;59128;44.642;21.188;2023-05-06T09:36:39;5.60;;;4.05;;
60665;SDS011;59128;44.642;21.188;2023-05-06T09:39:06;3.22;;;2.40;;
60665;SDS011;59128;44.642;21.188;2023-05-06T09:41:34;2.65;;;2.45;;
60665;SDS011;59128;44.642;21.188;2023-05-06T09:44:00;3.72;;;2.60;;
60665;SDS011;59128;44.642;21.188;2023-05-06T09:46:26;2.67;;;2.47;;
60665;SDS011;59128;44.642;21.188;2023-05-06T09:48:53;2.75;;;2.55;;
60665;SDS011;59128;44.642;21.188;2023-05-06T09:51:19;2.60;;;2.40;;
60665;SDS011;59128;44.642;21.188;2023-05-06T09:53:45;2.88;;;2.58;;
60665;SDS011;59128;44.642;21.188;2023-05-06T09:56:12;3.22;;;2.80;;
60665;SDS011;59128;44.642;21.188;2023-05-06T09:58:39;3.05;;;2.78;;
60665;SDS011;59128;44.642;21.188;2023-05-06T10:01:06;3.22;;;2.95;;
60665;SDS011;59128;44.642;21.188;2023-05-06T10:03:33;3.08;;;2.60;;
60665;SDS011;59128;44.642;21.188;2023-05-06T10:06:00;4.18;;;2.28;;
60665;SDS011;59128;44.642;21.188;2023-05-06T10:08:26;3.83;;;2.60;;
60665;SDS011;59128;44.642;21.188;2023-05-06T10:10:53;2.78;;;2.50;;
60665;SDS011;59128;44.642;21.188;2023-05-06T10:13:20;3.00;;;2.45;;
60665;SDS011;59128;44.642;21.188;2023-05-06T10:15:47;2.85;;;2.55;;
60665;SDS011;59128;44.642;21.188;2023-05-06T10:18:17;2.97;;;2.70;;
60665;SDS011;59128;44.642;21.188;2023-05-06T10:20:43;3.50;;;3.10;;
60665;SDS011;59128;44.642;21.188;2023-05-06T10:25:45;2.80;;;2.45;;
60665;SDS011;59128;44.642;21.188;2023-05-06T10:28:16;2.72;;;2.50;;
60665;SDS011;59128;44.642;21.188;2023-05-06T10:30:43;2.55;;;2.35;;
60665;SDS011;59128;44.642;21.188;2023-05-06T10:33:10;3.22;;;2.50;;
60665;SDS011;59128;44.642;21.188;2023-05-06T10:38:10;2.58;;;2.38;;
60665;SDS011;59128;44.642;21.188;2023-05-06T10:40:37;2.17;;;1.98;;
60665;SDS011;59128;44.642;21.188;2023-05-06T10:43:19;2.40;;;2.20;;
60665;SDS011;59128;44.642;21.188;2023-05-06T10:46:18;2.38;;;2.10;;
60665;SDS011;59128;44.642;21.188;2023-05-06T10:51:22;2.47;;;2.28;;
60665;SDS011;59128;44.642;21.188;2023-05-06T10:56:34;2.53;;;2.10;;
60665;SDS011;59128;44.642;21.188;2023-05-06T10:59:10;3.35;;;2.50;;
60665;SDS011;59128;44.642;21.188;2023-05-06T11:01:40;2.15;;;1.95;;
60665;SDS011;59128;44.642;21.188;2023-05-06T11:04:13;2.00;;;1.85;;
60665;SDS011;59128;44.642;21.188;2023-05-06T11:06:49;2.70;;;2.15;;
60665;SDS011;59128;44.642;21.188;2023-05-06T11:09:17;1.73;;;1.63;;
60665;SDS011;59128;44.642;21.188;2023-05-06T11:14:34;3.05;;;2.17;;
60665;SDS011;59128;44.642;21.188;2023-05-06T11:17:03;1.80;;;1.70;;
60665;SDS011;59128;44.642;21.188;2023-05-06T11:19:30;2.03;;;1.83;;
60665;SDS011;59128;44.642;21.188;2023-05-06T11:21:57;1.95;;;1.70;;
60665;SDS011;59128;44.642;21.188;2023-05-06T11:24:25;1.60;;;1.50;;
60665;SDS011;59128;44.642;21.188;2023-05-06T11:26:51;2.67;;;1.88;;
60665;SDS011;59128;44.642;21.188;2023-05-06T11:29:17;2.05;;;1.92;;
60665;SDS011;59128;44.642;21.188;2023-05-06T11:31:44;1.92;;;1.77;;
60665;SDS011;59128;44.642;21.188;2023-05-06T11:34:11;2.63;;;1.80;;
60665;SDS011;59128;44.642;21.188;2023-05-06T11:36:44;1.95;;;1.75;;
60665;SDS011;59128;44.642;21.188;2023-05-06T11:39:10;1.77;;;1.67;;
60665;SDS011;59128;44.642;21.188;2023-05-06T11:41:37;1.70;;;1.60;;
60665;SDS011;59128;44.642;21.188;2023-05-06T11:44:04;1.50;;;1.40;;
60665;SDS011;59128;44.642;21.188;2023-05-06T11:46:31;4.03;;;1.50;;
60665;SDS011;59128;44.642;21.188;2023-05-06T11:48:57;1.90;;;1.80;;
60665;SDS011;59128;44.642;21.188;2023-05-06T11:51:24;1.40;;;1.30;;
60665;SDS011;59128;44.642;21.188;2023-05-06T11:54:02;2.53;;;1.60;;
60665;SDS011;59128;44.642;21.188;2023-05-06T11:56:29;3.13;;;1.80;;
60665;SDS011;59128;44.642;21.188;2023-05-06T11:58:56;1.80;;;1.70;;
60665;SDS011;59128;44.642;21.188;2023-05-06T12:01:22;3.38;;;1.90;;
60665;SDS011;59128;44.642;21.188;2023-05-06T12:03:48;2.08;;;1.80;;
60665;SDS011;59128;44.642;21.188;2023-05-06T12:06:14;1.40;;;1.30;;
60665;SDS011;59128;44.642;21.188;2023-05-06T12:08:40;8.57;;;5.60;;
60665;SDS011;59128;44.642;21.188;2023-05-06T12:11:07;2.50;;;1.88;;
60665;SDS011;59128;44.642;21.188;2023-05-06T12:13:33;3.67;;;2.28;;
60665;SDS011;59128;44.642;21.188;2023-05-06T12:16:03;2.38;;;1.67;;
60665;SDS011;59128;44.642;21.188;2023-05-06T12:18:31;3.72;;;1.65;;
60665;SDS011;59128;44.642;21.188;2023-05-06T12:20:59;4.18;;;1.77;;
60665;SDS011;59128;44.642;21.188;2023-05-06T12:23:31;2.58;;;1.95;;
60665;SDS011;59128;44.642;21.188;2023-05-06T12:26:00;3.10;;;1.58;;
60665;SDS011;59128;44.642;21.188;2023-05-06T12:28:27;1.65;;;1.55;;
60665;SDS011;59128;44.642;21.188;2023-05-06T12:30:53;2.00;;;1.60;;
60665;SDS011;59128;44.642;21.188;2023-05-06T12:33:19;3.15;;;1.88;;
60665;SDS011;59128;44.642;21.188;2023-05-06T12:35:45;1.92;;;1.83;;
60665;SDS011;59128;44.642;21.188;2023-05-06T12:38:12;2.70;;;1.80;;
60665;SDS011;59128;44.642;21.188;2023-05-06T12:40:39;2.00;;;1.40;;
60665;SDS011;59128;44.642;21.188;2023-05-06T12:43:05;3.10;;;1.58;;
60665;SDS011;59128;44.642;21.188;2023-05-06T12:45:32;4.03;;;2.40;;
60665;SDS011;59128;44.642;21.188;2023-05-06T12:47:58;2.47;;;1.60;;
60665;SDS011;59128;44.642;21.188;2023-05-06T12:52:58;2.80;;;1.95;;
60665;SDS011;59128;44.642;21.188;2023-05-06T12:55:25;1.95;;;1.75;;
60665;SDS011;59128;44.642;21.188;2023-05-06T12:57:51;3.88;;;1.60;;
60665;SDS011;59128;44.642;21.188;2023-05-06T13:00:18;3.78;;;1.65;;
60665;SDS011;59128;44.642;21.188;2023-05-06T13:02:44;2.33;;;1.60;;
60665;SDS011;59128;44.642;21.188;2023-05-06T13:05:11;1.83;;;1.65;;
60665;SDS011;59128;44.642;21.188;2023-05-06T13:07:38;2.67;;;1.67;;
60665;SDS011;59128;44.642;21.188;2023-05-06T13:10:04;3.40;;;2.20;;
60665;SDS011;59128;44.642;21.188;2023-05-06T13:12:30;2.38;;;1.73;;
60665;SDS011;59128;44.642;21.188;2023-05-06T13:31:21;2.80;;;1.80;;
60665;SDS011;59128;44.642;21.188;2023-05-06T13:33:47;5.78;;;2.90;;
60665;SDS011;59128;44.642;21.188;2023-05-06T13:36:14;2.67;;;2.00;;
60665;SDS011;59128;44.642;21.188;2023-05-06T13:38:40;3.20;;;1.98;;
60665;SDS011;59128;44.642;21.188;2023-05-06T13:41:06;2.10;;;1.70;;
60665;SDS011;59128;44.642;21.188;2023-05-06T13:43:33;2.20;;;1.83;;
60665;SDS011;59128;44.642;21.188;2023-05-06T13:45:59;2.13;;;1.77;;
60665;SDS011;59128;44.642;21.188;2023-05-06T13:48:25;2.20;;;2.00;;
60665;SDS011;59128;44.642;21.188;2023-05-06T13:50:51;2.75;;;2.10;;
60665;SDS011;59128;44.642;21.188;2023-05-06T13:53:17;2.63;;;1.70;;
60665;SDS011;59128;44.642;21.188;2023-05-06T13:55:43;4.60;;;1.80;;
60665;SDS011;59128;44.642;21.188;2023-05-06T13:58:09;3.35;;;2.00;;
60665;SDS011;59128;44.642;21.188;2023-05-06T14:00:35;3.17;;;1.80;;
60665;SDS011;59128;44.642;21.188;2023-05-06T14:03:01;1.90;;;1.80;;
60665;SDS011;59128;44.642;21.188;2023-05-06T14:05:27;2.35;;;1.77;;
60665;SDS011;59128;44.642;21.188;2023-05-06T14:07:53;2.03;;;1.80;;
60665;SDS011;59128;44.642;21.188;2023-05-06T14:10:19;2.72;;;1.88;;
60665;SDS011;59128;44.642;21.188;2023-05-06T14:12:45;1.70;;;1.60;;
60665;SDS011;59128;44.642;21.188;2023-05-06T14:15:12;1.80;;;1.70;;
60665;SDS011;59128;44.642;21.188;2023-05-06T14:17:41;2.92;;;1.80;;
60665;SDS011;59128;44.642;21.188;2023-05-06T14:20:08;2.50;;;1.88;;
60665;SDS011;59128;44.642;21.188;2023-05-06T14:22:35;2.38;;;1.90;;
60665;SDS011;59128;44.642;21.188;2023-05-06T14:25:01;1.70;;;1.60;;
60665;SDS011;59128;44.642;21.188;2023-05-06T14:27:27;2.72;;;1.83;;
60665;SDS011;59128;44.642;21.188;2023-05-06T14:29:53;1.95;;;1.60;;
60665;SDS011;59128;44.642;21.188;2023-05-06T14:32:19;1.85;;;1.58;;
60665;SDS011;59128;44.642;21.188;2023-05-06T14:34:45;3.50;;;1.83;;
60665;SDS011;59128;44.642;21.188;2023-05-06T14:37:11;1.85;;;1.67;;
60665;SDS011;59128;44.642;21.188;2023-05-06T14:39:37;1.90;;;1.70;;
60665;SDS011;59128;44.642;21.188;2023-05-06T14:42:03;2.97;;;1.80;;
60665;SDS011;59128;44.642;21.188;2023-05-06T14:44:29;2.63;;;1.60;;
60665;SDS011;59128;44.642;21.188;2023-05-06T14:46:55;2.50;;;1.70;;
60665;SDS011;59128;44.642;21.188;2023-05-06T14:49:21;1.77;;;1.60;;
60665;SDS011;59128;44.642;21.188;2023-05-06T14:51:47;1.70;;;1.60;;
60665;SDS011;59128;44.642;21.188;2023-05-06T14:54:16;2.28;;;1.60;;
60665;SDS011;59128;44.642;21.188;2023-05-06T14:56:43;1.95;;;1.50;;
60665;SDS011;59128;44.642;21.188;2023-05-06T14:59:11;2.58;;;1.77;;
60665;SDS011;59128;44.642;21.188;2023-05-06T15:01:37;2.72;;;1.52;;
60665;SDS011;59128;44.642;21.188;2023-05-06T15:04:03;1.73;;;1.55;;
60665;SDS011;59128;44.642;21.188;2023-05-06T15:06:29;1.90;;;1.50;;